Time;durP1;ratioP1;P1;durP2;ratioP2;P2;SDS_P1;SDS_P2;PMS_P1;PMS_P2;Temp;Humidity;BMP_temperature;BMP_pressure;BME280_temperature;BME280_humidity;BME280_pressure;Samples;Min_cycle;Max_cycle;Signal;HPM_P1;HPM_P2
2021/01/25 00:02:19;;;;;;;8.30;6.13;;;3.80;91.70;;;;;;5076137;28;20457;-69
2021/01/25 00:04:46;;;;;;;8.43;7.53;;;3.70;91.70;;;;;;5076172;28;20475;-69
2021/01/25 00:07:13;;;;;;;8.73;6.87;;;3.70;91.80;;;;;;5075810;28;20480;-69
2021/01/25 00:09:39;;;;;;;15.60;7.17;;;3.70;91.90;;;;;;5076117;28;20447;-69
2021/01/25 00:12:06;;;;;;;9.57;6.87;;;3.70;92.10;;;;;;5075746;28;20456;-69
2021/01/25 00:14:32;;;;;;;8.73;7.27;;;3.70;92.20;;;;;;5075646;28;20955;-69
2021/01/25 00:17:00;;;;;;;8.50;7.30;;;3.70;92.20;;;;;;5075971;28;20448;-69
2021/01/25 00:19:26;;;;;;;7.93;6.50;;;3.80;92.30;;;;;;5075962;28;20451;-69
2021/01/25 00:21:52;;;;;;;10.33;7.70;;;3.70;92.20;;;;;;5075566;28;20942;-69
2021/01/25 00:24:19;;;;;;;13.50;7.60;;;3.70;92.30;;;;;;5075473;28;20494;-69
2021/01/25 00:26:45;;;;;;;9.00;7.80;;;3.80;92.30;;;;;;5075711;28;20447;-69
2021/01/25 00:29:12;;;;;;;10.23;8.37;;;3.80;92.30;;;;;;5075784;28;20441;-69
2021/01/25 00:31:38;;;;;;;10.73;8.10;;;3.80;92.20;;;;;;5075467;28;20459;-69
2021/01/25 00:34:04;;;;;;;11.47;8.23;;;3.80;92.20;;;;;;5075608;28;20905;-68
2021/01/25 00:36:30;;;;;;;11.10;7.47;;;3.80;92.30;;;;;;5075617;28;20444;-68
2021/01/25 00:38:56;;;;;;;16.73;7.73;;;3.80;92.30;;;;;;5075579;28;20444;-68
2021/01/25 00:41:23;;;;;;;10.87;7.80;;;3.80;92.20;;;;;;5075512;28;20447;-69
2021/01/25 00:43:49;;;;;;;10.90;7.50;;;3.80;92.30;;;;;;5075394;28;20474;-69
2021/01/25 00:46:16;;;;;;;12.00;8.00;;;3.80;92.30;;;;;;5074193;28;20514;-69
2021/01/25 00:48:42;;;;;;;10.50;6.77;;;3.80;92.30;;;;;;5075232;28;20476;-69
2021/01/25 00:51:08;;;;;;;10.70;7.57;;;3.80;92.40;;;;;;5075339;28;20466;-69
2021/01/25 00:53:34;;;;;;;9.20;7.10;;;3.80;92.30;;;;;;5075183;28;20483;-69
2021/01/25 00:56:00;;;;;;;7.67;6.67;;;3.80;92.30;;;;;;5075265;28;20437;-69
2021/01/25 00:58:27;;;;;;;10.93;7.30;;;3.70;92.40;;;;;;5075191;28;20444;-69
2021/01/25 01:00:53;;;;;;;9.87;6.70;;;3.70;92.50;;;;;;5075172;28;20448;-69
2021/01/25 01:03:21;;;;;;;8.07;6.90;;;3.80;92.50;;;;;;5075046;28;20441;-69
2021/01/25 01:05:47;;;;;;;7.37;6.43;;;3.70;92.40;;;;;;5075060;28;20448;-69
2021/01/25 01:08:15;;;;;;;7.83;6.30;;;3.80;92.50;;;;;;5074938;28;20484;-69
2021/01/25 01:10:41;;;;;;;9.53;7.60;;;3.70;92.50;;;;;;5074863;28;20465;-69
2021/01/25 01:13:07;;;;;;;9.60;6.40;;;3.70;92.50;;;;;;5074592;28;20440;-69
2021/01/25 01:15:34;;;;;;;14.53;7.87;;;3.70;92.60;;;;;;5074469;28;20498;-69
2021/01/25 01:18:00;;;;;;;12.67;7.00;;;3.70;92.60;;;;;;5074453;28;20942;-69
2021/01/25 01:20:27;;;;;;;8.00;6.83;;;3.70;92.60;;;;;;5074743;28;20495;-69
2021/01/25 01:22:53;;;;;;;9.50;7.00;;;3.80;92.70;;;;;;5074762;28;20436;-69
2021/01/25 01:25:19;;;;;;;6.73;6.10;;;3.80;92.70;;;;;;5074588;28;20464;-69
2021/01/25 01:27:45;;;;;;;7.50;5.90;;;3.80;92.60;;;;;;5074533;28;20483;-69
2021/01/25 01:30:13;;;;;;;6.70;5.77;;;3.80;92.50;;;;;;5074854;28;20812;-69
2021/01/25 01:32:40;;;;;;;8.43;6.23;;;3.80;92.60;;;;;;5074851;28;20452;-69
2021/01/25 01:35:07;;;;;;;9.13;6.87;;;3.80;92.60;;;;;;5074726;28;20851;-69
2021/01/25 01:37:34;;;;;;;9.33;6.93;;;3.80;92.50;;;;;;5074478;28;20861;-69
2021/01/25 01:40:00;;;;;;;15.27;6.80;;;3.80;92.40;;;;;;5074394;28;20445;-69
2021/01/25 01:42:26;;;;;;;9.13;7.07;;;3.70;92.50;;;;;;5074341;28;20440;-68
2021/01/25 01:44:52;;;;;;;8.87;6.50;;;3.70;92.50;;;;;;5074227;28;20463;-68
2021/01/25 01:47:20;;;;;;;8.30;6.13;;;3.70;92.40;;;;;;5074152;28;20537;-68
2021/01/25 01:49:48;;;;;;;8.73;6.37;;;3.70;92.60;;;;;;5074173;28;20448;-68
2021/01/25 01:52:15;;;;;;;7.67;6.40;;;3.60;92.50;;;;;;5074088;28;20440;-68
2021/01/25 01:54:41;;;;;;;8.00;5.90;;;3.60;92.60;;;;;;5074037;28;20465;-68
2021/01/25 01:57:08;;;;;;;10.33;5.70;;;3.60;92.70;;;;;;5073925;28;20460;-68
2021/01/25 01:59:34;;;;;;;7.67;6.23;;;3.70;92.90;;;;;;5074109;28;20444;-68
2021/01/25 02:02:01;;;;;;;10.10;6.00;;;3.70;92.80;;;;;;5074082;28;20468;-68
2021/01/25 02:04:27;;;;;;;8.87;6.80;;;3.70;92.80;;;;;;5074585;28;20826;-68
2021/01/25 02:06:56;;;;;;;7.17;6.20;;;3.70;92.80;;;;;;5073921;28;20786;-68
2021/01/25 02:09:23;;;;;;;8.43;5.70;;;3.70;93.10;;;;;;5073669;28;20441;-68
2021/01/25 02:11:50;;;;;;;6.90;6.10;;;3.70;92.80;;;;;;5073659;28;20840;-68
2021/01/25 02:14:17;;;;;;;9.40;6.50;;;3.70;92.80;;;;;;5073460;28;20994;-68
2021/01/25 02:16:44;;;;;;;8.77;6.00;;;3.70;92.80;;;;;;5073615;28;20929;-68
2021/01/25 02:19:14;;;;;;;7.50;6.50;;;3.80;92.80;;;;;;5073803;28;20448;-68
2021/01/25 02:21:53;;;;;;;7.07;5.97;;;3.70;92.80;;;;;;5073712;28;20453;-68
2021/01/25 02:24:25;;;;;;;7.60;5.90;;;3.70;92.80;;;;;;5073290;28;20467;-68
2021/01/25 02:27:15;;;;;;;6.97;6.13;;;3.70;92.70;;;;;;5073647;28;20425;-68
2021/01/25 02:29:43;;;;;;;7.37;6.63;;;3.70;92.70;;;;;;5073610;28;20791;-68
2021/01/25 02:32:10;;;;;;;12.13;6.13;;;3.70;92.70;;;;;;5073562;28;20452;-68
2021/01/25 02:34:38;;;;;;;9.50;5.90;;;3.70;92.70;;;;;;5073443;28;20465;-68
2021/01/25 02:37:05;;;;;;;7.00;5.80;;;3.70;92.70;;;;;;5073507;28;20448;-68
2021/01/25 02:39:32;;;;;;;7.17;6.47;;;3.70;92.70;;;;;;5073491;28;20440;-68
2021/01/25 02:42:00;;;;;;;11.40;6.50;;;3.70;92.70;;;;;;5073446;28;20506;-68
2021/01/25 02:44:28;;;;;;;7.83;5.93;;;3.70;92.70;;;;;;5073308;28;20456;-68
2021/01/25 02:46:57;;;;;;;6.83;5.90;;;3.70;92.70;;;;;;5073414;28;20452;-68
2021/01/25 02:49:24;;;;;;;7.20;5.80;;;3.80;92.80;;;;;;5073360;28;20443;-68
2021/01/25 02:51:50;;;;;;;7.53;5.60;;;3.70;92.80;;;;;;5073330;28;20452;-68
2021/01/25 02:54:16;;;;;;;11.10;6.20;;;3.70;92.80;;;;;;5073296;28;20491;-68
2021/01/25 02:56:43;;;;;;;7.60;6.43;;;3.80;92.90;;;;;;5073360;28;20486;-68
2021/01/25 02:59:10;;;;;;;9.17;6.80;;;3.80;92.80;;;;;;5073289;28;20436;-68
2021/01/25 03:01:36;;;;;;;8.93;6.60;;;3.80;92.80;;;;;;5075422;28;20443;-68
2021/01/25 03:04:05;;;;;;;8.10;6.87;;;3.80;92.70;;;;;;5073233;28;20464;-68
2021/01/25 03:06:31;;;;;;;7.00;6.30;;;3.80;92.80;;;;;;5073266;28;20444;-68
2021/01/25 03:08:57;;;;;;;8.60;6.80;;;3.80;92.80;;;;;;5072863;28;20484;-68
2021/01/25 03:11:24;;;;;;;6.70;6.10;;;3.80;92.80;;;;;;5076580;28;20457;-68
2021/01/25 03:13:50;;;;;;;8.47;6.57;;;3.80;92.80;;;;;;5076877;28;20473;-68
2021/01/25 03:16:17;;;;;;;9.33;8.37;;;3.80;92.90;;;;;;5077162;28;20440;-68
2021/01/25 03:18:43;;;;;;;8.33;6.43;;;3.80;92.90;;;;;;5076829;28;20447;-68
2021/01/25 03:21:10;;;;;;;8.70;6.80;;;3.80;92.90;;;;;;5077140;28;20449;-68
2021/01/25 03:23:38;;;;;;;9.40;6.13;;;3.80;92.80;;;;;;5076673;28;20989;-68
2021/01/25 03:26:05;;;;;;;7.87;6.23;;;3.80;92.80;;;;;;5076716;28;20470;-68
2021/01/25 03:28:31;;;;;;;7.83;6.60;;;3.80;92.80;;;;;;5076985;28;21044;-68
2021/01/25 03:30:57;;;;;;;12.40;6.87;;;3.80;92.80;;;;;;5076828;28;20444;-68
2021/01/25 03:33:23;;;;;;;8.37;6.30;;;3.80;92.80;;;;;;5076796;28;20450;-68
2021/01/25 03:35:49;;;;;;;9.17;7.17;;;3.80;92.80;;;;;;5076773;28;20448;-68
2021/01/25 03:38:17;;;;;;;8.90;7.37;;;3.80;92.80;;;;;;5076750;28;20431;-68
2021/01/25 03:40:43;;;;;;;8.07;6.40;;;3.90;92.80;;;;;;5076730;28;20440;-68
2021/01/25 03:43:09;;;;;;;10.50;6.60;;;3.90;92.70;;;;;;5076681;28;20467;-68
2021/01/25 03:45:35;;;;;;;9.97;7.10;;;3.80;92.70;;;;;;5076491;28;20487;-68
2021/01/25 03:48:01;;;;;;;13.17;8.13;;;3.90;92.70;;;;;;5076160;28;21020;-68
2021/01/25 03:50:27;;;;;;;11.40;9.10;;;3.90;92.70;;;;;;5076519;28;20858;-68
2021/01/25 03:52:54;;;;;;;11.10;7.30;;;3.90;92.60;;;;;;5076462;28;20441;-68
2021/01/25 03:55:21;;;;;;;11.57;8.40;;;3.90;92.60;;;;;;5076000;28;20974;-68
2021/01/25 03:57:47;;;;;;;12.23;9.27;;;3.90;92.60;;;;;;5076376;28;20452;-68
2021/01/25 04:00:14;;;;;;;8.57;7.67;;;3.90;92.60;;;;;;5076327;28;20850;-68
2021/01/25 04:02:40;;;;;;;11.07;7.43;;;3.90;92.60;;;;;;5076300;28;20444;-68
2021/01/25 04:05:07;;;;;;;10.00;8.17;;;3.90;92.70;;;;;;5076230;28;20466;-68
2021/01/25 04:07:34;;;;;;;10.70;8.03;;;3.90;92.70;;;;;;5076161;28;20499;-68
2021/01/25 04:10:00;;;;;;;9.30;8.00;;;3.90;92.70;;;;;;5076122;28;20448;-69
2021/01/25 04:12:27;;;;;;;10.80;9.00;;;3.90;92.70;;;;;;5075752;28;20456;-68
2021/01/25 04:14:53;;;;;;;8.70;7.23;;;3.90;92.60;;;;;;5076022;28;20469;-68
2021/01/25 04:17:19;;;;;;;10.33;7.10;;;3.90;92.60;;;;;;5076033;28;20562;-68
2021/01/25 04:19:45;;;;;;;8.33;7.50;;;3.90;92.60;;;;;;5076009;28;20441;-68
2021/01/25 04:22:11;;;;;;;8.50;7.70;;;3.90;92.70;;;;;;5075386;28;20448;-68
2021/01/25 04:24:38;;;;;;;7.87;7.07;;;3.90;92.60;;;;;;5075848;28;20465;-68
2021/01/25 04:27:04;;;;;;;8.43;6.70;;;3.90;92.60;;;;;;5075898;28;20474;-68
2021/01/25 04:29:31;;;;;;;8.50;6.77;;;3.90;92.60;;;;;;5075427;28;20990;-68
2021/01/25 04:31:58;;;;;;;6.37;5.77;;;3.90;92.60;;;;;;5075419;28;20878;-68
2021/01/25 04:34:24;;;;;;;8.10;7.30;;;3.90;92.60;;;;;;5075631;28;20471;-68
2021/01/25 04:36:50;;;;;;;7.30;6.50;;;3.90;92.60;;;;;;5075691;28;20466;-69
2021/01/25 04:39:16;;;;;;;11.30;7.93;;;3.90;92.50;;;;;;5075671;28;20440;-69
2021/01/25 04:41:43;;;;;;;9.50;7.30;;;3.90;92.60;;;;;;5075268;28;20449;-68
2021/01/25 04:44:10;;;;;;;8.40;7.60;;;3.90;92.60;;;;;;5075489;28;20460;-68
2021/01/25 04:46:38;;;;;;;8.03;6.60;;;3.90;92.60;;;;;;5075293;28;20498;-68
2021/01/25 04:49:05;;;;;;;7.60;6.90;;;3.90;92.50;;;;;;5075370;28;20479;-68
2021/01/25 04:51:32;;;;;;;8.10;6.60;;;3.90;92.50;;;;;;5075340;28;20498;-68
2021/01/25 04:53:59;;;;;;;12.40;8.90;;;3.90;92.50;;;;;;5075367;28;20460;-68
2021/01/25 04:56:27;;;;;;;8.30;7.47;;;4.00;92.60;;;;;;5075379;28;20437;-68
2021/01/25 04:58:54;;;;;;;8.80;7.60;;;4.00;92.60;;;;;;5075302;28;20850;-68
2021/01/25 05:01:20;;;;;;;9.30;7.80;;;4.00;92.60;;;;;;5075198;28;20448;-68
2021/01/25 05:03:47;;;;;;;12.43;8.00;;;4.00;92.60;;;;;;5074740;28;20464;-68
2021/01/25 05:06:14;;;;;;;8.73;7.83;;;4.00;92.60;;;;;;5075100;28;20441;-68
2021/01/25 05:08:40;;;;;;;8.03;7.33;;;4.00;92.60;;;;;;5074956;28;20480;-68
2021/01/25 05:11:13;;;;;;;9.77;7.73;;;4.00;92.60;;;;;;5074780;28;20448;-68
2021/01/25 05:13:40;;;;;;;7.90;6.83;;;4.00;92.60;;;;;;5074956;28;20465;-68
2021/01/25 05:16:16;;;;;;;8.50;7.63;;;3.90;92.60;;;;;;5074967;28;20451;-68
2021/01/25 05:18:42;;;;;;;8.60;7.80;;;3.90;92.70;;;;;;5074925;28;20459;-68
2021/01/25 05:21:09;;;;;;;10.00;7.73;;;3.90;92.70;;;;;;5074861;28;20448;-68
2021/01/25 05:23:38;;;;;;;9.20;8.17;;;3.90;92.80;;;;;;5074672;28;20510;-68
2021/01/25 05:26:06;;;;;;;11.00;9.30;;;3.90;92.80;;;;;;5074663;28;20474;-68
2021/01/25 05:28:39;;;;;;;12.37;9.00;;;3.90;92.80;;;;;;5074659;28;20486;-68
2021/01/25 05:31:19;;;;;;;10.30;8.63;;;3.90;92.80;;;;;;5074643;28;20482;-68
2021/01/25 05:33:45;;;;;;;12.17;8.93;;;3.90;92.80;;;;;;5073512;28;20986;-68
2021/01/25 05:36:16;;;;;;;13.20;9.73;;;3.90;92.80;;;;;;5074197;28;20440;-68
2021/01/25 05:38:42;;;;;;;11.67;9.63;;;4.00;92.80;;;;;;5074538;28;20429;-68
2021/01/25 05:41:08;;;;;;;11.50;9.57;;;4.00;92.80;;;;;;5074574;28;20449;-67
2021/01/25 05:43:35;;;;;;;14.30;10.03;;;4.00;92.80;;;;;;5073947;28;20873;-67
2021/01/25 05:46:08;;;;;;;11.60;10.33;;;4.00;92.80;;;;;;5074253;28;20557;-67
2021/01/25 05:48:34;;;;;;;10.87;9.60;;;4.00;92.70;;;;;;5074186;28;20836;-67
2021/01/25 05:51:12;;;;;;;13.67;10.30;;;4.00;92.70;;;;;;5074193;28;20440;-67
2021/01/25 05:53:39;;;;;;;13.50;9.97;;;4.00;92.70;;;;;;5074118;28;20492;-68
2021/01/25 05:56:07;;;;;;;14.50;10.27;;;4.00;92.70;;;;;;5073849;28;20440;-68
2021/01/25 05:58:33;;;;;;;14.20;10.10;;;4.00;92.70;;;;;;5074130;28;20440;-68
2021/01/25 06:01:00;;;;;;;14.63;10.67;;;4.00;92.80;;;;;;5074026;28;20445;-68
2021/01/25 06:03:28;;;;;;;13.07;11.07;;;4.00;92.70;;;;;;5073598;28;20436;-68
2021/01/25 06:05:55;;;;;;;13.33;10.93;;;4.00;92.80;;;;;;5073904;28;20429;-68
2021/01/25 06:08:25;;;;;;;11.90;9.87;;;4.00;92.70;;;;;;5073761;28;20476;-68
2021/01/25 06:11:05;;;;;;;18.20;10.33;;;4.00;92.70;;;;;;5073719;28;20874;-67
2021/01/25 06:13:38;;;;;;;11.60;10.10;;;4.00;92.70;;;;;;5073691;28;20432;-68
2021/01/25 06:16:08;;;;;;;12.50;10.10;;;4.00;92.70;;;;;;5073794;28;20436;-68
2021/01/25 06:18:34;;;;;;;11.60;10.00;;;4.00;92.80;;;;;;5073798;28;20425;-67
2021/01/25 06:21:03;;;;;;;11.80;10.60;;;4.00;92.80;;;;;;5073693;28;20444;-67
2021/01/25 06:23:30;;;;;;;12.20;10.90;;;4.00;92.80;;;;;;5073638;28;20445;-69
2021/01/25 06:25:57;;;;;;;13.07;10.87;;;4.00;92.90;;;;;;5073388;28;20966;-67
2021/01/25 06:28:23;;;;;;;11.70;9.70;;;4.00;92.90;;;;;;5073201;28;20486;-67
2021/01/25 06:30:49;;;;;;;14.30;11.80;;;4.00;92.80;;;;;;5073577;28;20436;-68
2021/01/25 06:33:18;;;;;;;14.73;11.20;;;4.10;92.90;;;;;;5073323;28;20449;-67
2021/01/25 06:35:46;;;;;;;15.33;11.40;;;4.10;92.90;;;;;;5073566;28;20494;-67
2021/01/25 06:38:14;;;;;;;17.90;12.27;;;4.10;92.80;;;;;;5073573;28;20436;-67
2021/01/25 06:40:43;;;;;;;13.77;11.70;;;4.10;92.70;;;;;;5073217;28;20482;-67
2021/01/25 06:43:11;;;;;;;15.93;11.93;;;4.10;92.70;;;;;;5073484;28;20444;-67
2021/01/25 06:45:39;;;;;;;15.20;12.43;;;4.10;92.70;;;;;;5073323;28;20460;-67
2021/01/25 06:48:07;;;;;;;15.27;11.80;;;4.10;92.70;;;;;;5073898;28;20514;-67
2021/01/25 06:50:35;;;;;;;21.87;12.67;;;4.10;92.70;;;;;;5073369;28;20436;-67
2021/01/25 06:53:03;;;;;;;35.57;13.17;;;4.10;92.70;;;;;;5073421;28;20450;-68
2021/01/25 06:55:31;;;;;;;26.53;13.43;;;4.00;92.60;;;;;;5073263;28;20473;-68
2021/01/25 06:57:57;;;;;;;20.40;12.77;;;4.10;92.70;;;;;;5073365;28;20494;-68
2021/01/25 07:00:25;;;;;;;16.73;13.50;;;4.10;92.70;;;;;;5073027;28;20436;-67
2021/01/25 07:02:53;;;;;;;15.60;12.80;;;4.10;92.70;;;;;;5073014;28;20440;-67
2021/01/25 07:05:26;;;;;;;15.17;12.90;;;4.00;92.60;;;;;;5073142;28;20543;-68
2021/01/25 07:07:52;;;;;;;15.50;12.30;;;4.10;92.70;;;;;;5072839;28;20536;-67
2021/01/25 07:10:20;;;;;;;15.47;11.97;;;4.00;92.60;;;;;;5072870;28;20455;-67
2021/01/25 07:12:46;;;;;;;17.40;11.30;;;4.00;92.60;;;;;;5073237;28;20839;-67
2021/01/25 07:15:14;;;;;;;15.10;11.60;;;4.00;92.60;;;;;;5073097;28;20473;-67
2021/01/25 07:17:42;;;;;;;14.83;11.00;;;4.00;92.50;;;;;;5073095;28;20436;-67
2021/01/25 07:20:10;;;;;;;13.00;11.03;;;4.00;92.60;;;;;;5073045;28;20470;-67
2021/01/25 07:22:36;;;;;;;11.47;10.27;;;4.00;92.60;;;;;;5072842;28;20895;-67
2021/01/25 07:25:04;;;;;;;15.77;11.30;;;4.00;92.60;;;;;;5073383;28;20547;-67
2021/01/25 07:27:35;;;;;;;14.10;12.50;;;4.00;92.70;;;;;;5072660;28;20429;-67
2021/01/25 07:30:02;;;;;;;18.10;12.43;;;4.00;92.80;;;;;;5073101;28;20420;-67
2021/01/25 07:32:28;;;;;;;17.10;12.27;;;4.00;92.80;;;;;;5073006;28;20428;-67
2021/01/25 07:34:56;;;;;;;14.23;12.73;;;4.00;92.80;;;;;;5072638;28;20468;-67
2021/01/25 07:37:23;;;;;;;15.93;12.67;;;4.00;92.80;;;;;;5072945;28;20563;-67
2021/01/25 07:39:49;;;;;;;17.23;13.23;;;4.00;92.80;;;;;;5072893;28;20424;-67
2021/01/25 07:42:15;;;;;;;17.63;12.40;;;4.00;92.80;;;;;;5072905;28;20914;-67
2021/01/25 07:44:43;;;;;;;15.30;12.00;;;4.00;92.80;;;;;;5072835;28;20495;-67
2021/01/25 07:47:09;;;;;;;15.70;14.10;;;4.00;92.90;;;;;;5072815;28;20444;-67
2021/01/25 07:49:35;;;;;;;17.30;13.80;;;4.00;92.90;;;;;;5072757;28;20477;-67
2021/01/25 07:52:02;;;;;;;16.60;13.50;;;4.00;93.20;;;;;;5072785;28;20502;-67
2021/01/25 07:54:30;;;;;;;17.33;14.70;;;4.00;92.90;;;;;;5072698;28;20472;-67
2021/01/25 07:56:59;;;;;;;21.27;14.30;;;4.00;92.90;;;;;;5075296;28;20440;-67
2021/01/25 07:59:33;;;;;;;20.83;14.60;;;4.00;93.20;;;;;;5076330;28;20441;-67
2021/01/25 08:02:04;;;;;;;17.60;14.00;;;4.00;92.90;;;;;;5076300;28;20429;-67
2021/01/25 08:04:34;;;;;;;15.13;12.50;;;4.00;92.90;;;;;;5076272;28;20475;-67
2021/01/25 08:07:02;;;;;;;22.00;14.33;;;4.00;92.90;;;;;;5076198;28;20432;-66
2021/01/25 08:09:28;;;;;;;14.83;13.20;;;4.00;92.90;;;;;;5075828;28;20476;-67
2021/01/25 08:11:56;;;;;;;17.10;13.20;;;4.00;92.90;;;;;;5075624;28;20828;-67
2021/01/25 08:14:27;;;;;;;18.87;14.17;;;4.00;92.90;;;;;;5076608;28;20463;-67
2021/01/25 08:16:59;;;;;;;20.50;13.97;;;3.90;92.90;;;;;;5076100;28;20429;-67
2021/01/25 08:19:33;;;;;;;18.07;13.63;;;4.00;93.00;;;;;;5075978;28;20428;-67
2021/01/25 08:22:03;;;;;;;21.10;13.73;;;4.00;93.00;;;;;;5075965;28;20429;-68
2021/01/25 08:24:30;;;;;;;21.40;14.73;;;4.00;93.10;;;;;;5075798;28;20461;-68
2021/01/25 08:27:05;;;;;;;21.63;14.27;;;4.00;93.10;;;;;;5075959;28;20428;-67
2021/01/25 08:29:33;;;;;;;17.70;13.10;;;4.00;93.10;;;;;;5075722;28;20861;-67
2021/01/25 08:32:11;;;;;;;17.00;14.30;;;4.00;93.20;;;;;;5075696;28;20452;-67
2021/01/25 08:34:37;;;;;;;17.07;13.90;;;4.10;93.20;;;;;;5075382;28;20981;-67
2021/01/25 08:37:08;;;;;;;17.37;12.97;;;4.10;93.30;;;;;;5075380;28;20938;-67
2021/01/25 08:39:39;;;;;;;16.73;13.17;;;4.00;93.20;;;;;;5075680;28;20425;-67
2021/01/25 08:42:13;;;;;;;18.13;14.80;;;4.00;93.20;;;;;;5075601;28;20429;-67
2021/01/25 08:44:44;;;;;;;18.07;14.20;;;4.00;93.30;;;;;;5075463;28;20496;-67
2021/01/25 08:47:11;;;;;;;21.03;16.57;;;4.00;93.30;;;;;;5075506;28;20429;-67
2021/01/25 08:49:39;;;;;;;19.23;14.93;;;4.10;93.30;;;;;;5075437;28;20461;-66
2021/01/25 08:52:09;;;;;;;20.23;15.97;;;4.10;93.30;;;;;;5075420;28;20420;-67
2021/01/25 08:54:38;;;;;;;19.87;13.93;;;4.10;93.30;;;;;;5075373;28;20468;-67
2021/01/25 08:57:15;;;;;;;16.97;14.13;;;4.10;93.40;;;;;;5075257;28;20840;-67
2021/01/25 08:59:44;;;;;;;19.47;12.03;;;4.10;93.40;;;;;;5075334;28;20433;-68
2021/01/25 09:02:13;;;;;;;18.10;11.93;;;4.10;93.30;;;;;;5075290;28;20475;-67
2021/01/25 09:04:39;;;;;;;19.30;13.30;;;4.20;93.40;;;;;;5074796;28;20468;-67
2021/01/25 09:07:11;;;;;;;25.57;13.60;;;4.20;93.60;;;;;;5074213;28;20445;-67
2021/01/25 09:09:37;;;;;;;21.90;12.87;;;4.30;93.30;;;;;;5075001;28;20465;-67
2021/01/25 09:12:04;;;;;;;14.33;12.67;;;4.30;93.20;;;;;;5074658;28;20465;-67
2021/01/25 09:14:30;;;;;;;13.63;10.47;;;4.30;93.10;;;;;;5074856;28;20535;-67
2021/01/25 09:16:57;;;;;;;14.23;11.67;;;4.40;93.00;;;;;;5074920;28;20452;-67
2021/01/25 09:19:23;;;;;;;15.17;11.73;;;4.40;92.90;;;;;;5074842;28;20436;-67
2021/01/25 09:21:50;;;;;;;15.60;12.80;;;4.40;92.80;;;;;;5074784;28;20449;-67
2021/01/25 09:24:16;;;;;;;12.80;11.50;;;4.50;92.90;;;;;;5075115;28;20472;-67
2021/01/25 09:26:42;;;;;;;18.13;12.60;;;4.50;92.60;;;;;;5074444;28;20455;-67
2021/01/25 09:29:08;;;;;;;13.90;12.33;;;4.50;92.60;;;;;;5074603;28;20487;-67
2021/01/25 09:31:35;;;;;;;15.60;11.73;;;4.50;92.50;;;;;;5074560;28;20444;-67
2021/01/25 09:34:02;;;;;;;15.77;11.77;;;4.50;92.30;;;;;;5074465;28;20472;-67
2021/01/25 09:36:28;;;;;;;14.63;11.23;;;4.60;92.30;;;;;;5074586;28;20509;-67
2021/01/25 09:38:54;;;;;;;13.70;11.20;;;4.60;92.30;;;;;;5074562;28;20478;-67
2021/01/25 09:41:21;;;;;;;14.93;12.53;;;4.60;92.20;;;;;;5074555;28;20451;-68
2021/01/25 09:43:47;;;;;;;14.87;11.80;;;4.60;92.20;;;;;;5074447;28;20511;-68
2021/01/25 09:46:13;;;;;;;15.57;11.90;;;4.60;92.20;;;;;;5074336;28;20490;-67
2021/01/25 09:48:40;;;;;;;20.67;12.70;;;4.60;92.20;;;;;;5074293;28;20472;-67
2021/01/25 09:51:07;;;;;;;15.60;13.00;;;4.60;92.10;;;;;;5074236;28;20448;-67
2021/01/25 09:53:33;;;;;;;13.00;9.90;;;4.60;92.00;;;;;;5074105;28;20429;-67
2021/01/25 09:55:59;;;;;;;13.70;10.90;;;4.60;91.90;;;;;;5074122;28;20425;-67
2021/01/25 09:58:25;;;;;;;11.87;10.67;;;4.60;91.80;;;;;;5074071;28;20501;-67
2021/01/25 10:00:51;;;;;;;11.93;10.70;;;4.60;91.80;;;;;;5074037;28;20444;-67
2021/01/25 10:03:18;;;;;;;15.07;11.63;;;4.60;91.70;;;;;;5073894;28;20490;-67
2021/01/25 10:05:45;;;;;;;12.20;10.83;;;4.60;91.60;;;;;;5073964;28;20449;-67
2021/01/25 10:08:12;;;;;;;14.33;12.40;;;4.70;91.70;;;;;;5073829;28;20802;-68
2021/01/25 10:10:38;;;;;;;17.23;12.53;;;4.70;91.60;;;;;;5073719;28;20460;-68
2021/01/25 10:13:05;;;;;;;13.90;11.67;;;4.70;91.60;;;;;;5073810;28;20459;-68
2021/01/25 10:15:33;;;;;;;17.60;12.73;;;4.70;91.60;;;;;;5073726;28;20464;-67
2021/01/25 10:17:59;;;;;;;14.20;12.37;;;4.70;91.50;;;;;;5073660;28;20890;-68
2021/01/25 10:20:25;;;;;;;14.13;12.37;;;4.80;91.40;;;;;;5074431;28;20436;-67
2021/01/25 10:22:52;;;;;;;14.80;12.80;;;4.80;91.30;;;;;;5073750;28;20478;-67
2021/01/25 10:25:19;;;;;;;13.83;11.50;;;4.90;91.20;;;;;;5073622;28;20460;-68
2021/01/25 10:27:45;;;;;;;18.10;13.67;;;4.90;91.20;;;;;;5073624;28;20428;-68
2021/01/25 10:30:14;;;;;;;21.20;13.50;;;5.00;91.10;;;;;;5073614;28;20421;-68
2021/01/25 10:32:40;;;;;;;15.23;12.27;;;4.90;90.60;;;;;;5073542;28;20447;-68
2021/01/25 10:35:08;;;;;;;23.73;17.87;;;4.90;90.60;;;;;;5073559;28;20460;-68
2021/01/25 10:37:34;;;;;;;18.50;14.57;;;4.80;90.60;;;;;;5073531;28;20811;-68
2021/01/25 10:40:00;;;;;;;15.17;13.03;;;4.80;90.70;;;;;;5073154;28;20926;-67
2021/01/25 10:42:28;;;;;;;16.87;14.07;;;4.80;90.80;;;;;;5073447;28;20455;-67
2021/01/25 10:44:54;;;;;;;15.37;12.97;;;4.90;91.00;;;;;;5073369;28;20487;-67
2021/01/25 10:47:21;;;;;;;15.57;13.70;;;5.00;90.90;;;;;;5073457;28;20436;-67
2021/01/25 10:49:48;;;;;;;19.40;13.63;;;5.20;90.50;;;;;;5073302;28;20490;-67
2021/01/25 10:52:15;;;;;;;15.60;12.40;;;5.30;90.00;;;;;;5073397;28;20421;-67
2021/01/25 10:54:41;;;;;;;16.40;12.10;;;5.30;90.00;;;;;;5073251;28;20464;-68
2021/01/25 10:57:08;;;;;;;13.77;12.27;;;5.40;90.00;;;;;;5073044;28;20957;-68
2021/01/25 10:59:36;;;;;;;24.57;21.97;;;5.40;90.00;;;;;;5073289;28;20493;-68
2021/01/25 11:02:03;;;;;;;20.10;18.00;;;5.50;89.40;;;;;;5073220;28;20498;-68
2021/01/25 11:04:29;;;;;;;14.23;11.53;;;5.60;89.00;;;;;;5073126;28;20480;-68
2021/01/25 11:06:55;;;;;;;16.40;11.53;;;5.60;87.90;;;;;;5073205;28;20498;-68
2021/01/25 11:09:22;;;;;;;14.70;11.63;;;5.60;87.10;;;;;;5073005;28;20522;-68
2021/01/25 11:11:50;;;;;;;13.50;12.07;;;5.50;86.60;;;;;;5072793;28;20459;-68
2021/01/25 11:14:16;;;;;;;16.53;12.10;;;5.50;86.50;;;;;;5073034;28;20461;-69
2021/01/25 11:16:44;;;;;;;12.07;10.40;;;5.50;86.20;;;;;;5072818;28;20445;-68
2021/01/25 11:19:10;;;;;;;12.70;10.00;;;5.60;86.20;;;;;;5073141;28;20432;-69
2021/01/25 11:21:38;;;;;;;12.17;10.90;;;5.80;85.10;;;;;;5073159;28;20459;-69
2021/01/25 11:24:05;;;;;;;12.47;9.63;;;6.10;84.30;;;;;;5072948;28;20468;-70
2021/01/25 11:26:36;;;;;;;10.40;8.57;;;6.50;83.20;;;;;;5073042;28;20429;-69
2021/01/25 11:29:02;;;;;;;10.37;8.70;;;6.70;82.00;;;;;;5072972;28;20457;-69
2021/01/25 11:31:28;;;;;;;11.73;9.40;;;7.10;80.70;;;;;;5074958;28;20445;-69
2021/01/25 11:33:55;;;;;;;8.40;7.50;;;7.40;78.30;;;;;;5076767;28;20464;-69
2021/01/25 11:36:22;;;;;;;11.43;7.23;;;7.80;76.80;;;;;;5076825;28;20429;-70
2021/01/25 11:38:48;;;;;;;9.00;7.00;;;8.00;73.30;;;;;;5076780;28;20466;-69
2021/01/25 11:41:14;;;;;;;7.60;6.90;;;8.20;71.30;;;;;;5076844;28;20498;-69
2021/01/25 11:43:40;;;;;;;9.60;7.50;;;8.30;70.30;;;;;;5076659;28;20468;-69
2021/01/25 11:46:07;;;;;;;9.13;7.80;;;8.50;69.00;;;;;;5076586;28;20452;-69
2021/01/25 11:48:33;;;;;;;11.70;7.83;;;8.60;68.70;;;;;;5076480;28;20829;-69
2021/01/25 11:51:00;;;;;;;9.77;7.97;;;8.90;68.60;;;;;;5076462;28;20494;-69
2021/01/25 11:53:26;;;;;;;9.03;7.60;;;9.00;66.50;;;;;;5076460;28;20420;-69
2021/01/25 11:55:52;;;;;;;9.23;8.37;;;9.10;65.00;;;;;;5076136;28;20962;-69
2021/01/25 11:58:18;;;;;;;9.20;8.30;;;9.30;64.90;;;;;;5076410;28;20429;-69
2021/01/25 12:00:45;;;;;;;11.40;7.90;;;9.40;64.50;;;;;;5076038;28;20843;-69
2021/01/25 12:03:11;;;;;;;9.00;8.20;;;9.50;64.20;;;;;;5076298;28;20440;-69
2021/01/25 12:05:37;;;;;;;9.73;8.20;;;9.60;63.30;;;;;;5076194;28;20468;-69
2021/01/25 12:08:04;;;;;;;9.40;8.50;;;9.80;62.30;;;;;;5075850;28;20931;-69
2021/01/25 12:10:31;;;;;;;9.50;8.70;;;9.90;62.10;;;;;;5076037;28;20468;-69
2021/01/25 12:12:57;;;;;;;11.37;9.27;;;9.80;60.10;;;;;;5075877;28;20437;-69
2021/01/25 12:15:23;;;;;;;10.53;8.77;;;9.80;59.80;;;;;;5076071;28;20526;-69
2021/01/25 12:17:50;;;;;;;10.27;9.17;;;9.60;60.10;;;;;;5076960;28;20433;-69
2021/01/25 12:20:17;;;;;;;9.87;8.80;;;9.30;60.60;;;;;;5076071;28;20445;-69
2021/01/25 12:22:43;;;;;;;9.63;8.73;;;9.20;62.30;;;;;;5076023;28;20486;-69
2021/01/25 12:25:11;;;;;;;9.60;8.67;;;9.10;62.50;;;;;;5075933;28;20468;-69
2021/01/25 12:27:37;;;;;;;11.63;10.40;;;9.00;63.20;;;;;;5075959;28;20448;-69
2021/01/25 12:30:04;;;;;;;12.23;10.43;;;9.00;63.20;;;;;;5075804;28;20481;-69
2021/01/25 12:32:31;;;;;;;11.40;10.23;;;9.00;63.80;;;;;;5075748;28;20444;-70
2021/01/25 12:34:57;;;;;;;12.03;9.37;;;8.90;63.90;;;;;;5075724;28;20533;-70
2021/01/25 12:37:23;;;;;;;11.57;10.37;;;8.90;64.20;;;;;;5075784;28;20436;-70
2021/01/25 12:39:49;;;;;;;11.17;10.13;;;8.80;64.20;;;;;;5075618;28;20445;-70
2021/01/25 12:42:16;;;;;;;10.77;9.40;;;8.70;64.20;;;;;;5075395;28;20441;-69
2021/01/25 12:44:42;;;;;;;14.67;10.97;;;8.60;63.00;;;;;;5075470;28;20518;-70
2021/01/25 12:47:09;;;;;;;14.73;11.43;;;8.50;63.10;;;;;;5076084;28;20440;-70